Time;durP1;ratioP1;P1;durP2;ratioP2;P2;SDS_P1;SDS_P2;PMS_P1;PMS_P2;Temp;Humidity;BMP_temperature;BMP_pressure;BME280_temperature;BME280_humidity;BME280_pressure;Samples;Min_cycle;Max_cycle;Signal;HPM_P1;HPM_P2
2021/12/25 00:00:09;;;;;;;14.40;6.27;;;;;;;-11.73;61.79;98074.09;6019771;23;20027;-80
2021/12/25 00:02:35;;;;;;;13.07;4.93;;;;;;;-11.85;62.46;98041.69;6020454;23;20026;-79
2021/12/25 00:05:03;;;;;;;12.07;5.47;;;;;;;-11.59;62.10;98082.34;6042592;23;20048;-79
2021/12/25 00:07:29;;;;;;;16.67;6.07;;;;;;;-11.92;61.62;98041.31;6018890;23;20030;-80
2021/12/25 00:09:55;;;;;;;13.03;5.17;;;;;;;-11.94;62.94;98012.78;6042642;23;20464;-79
2021/12/25 00:12:20;;;;;;;17.30;5.80;;;;;;;-11.42;62.48;98063.06;6067370;23;20022;-79
2021/12/25 00:14:46;;;;;;;11.03;5.17;;;;;;;-11.15;62.98;98059.34;6041943;23;20023;-80
2021/12/25 00:17:12;;;;;;;14.37;5.40;;;;;;;-11.17;61.95;98061.78;6065801;23;20050;-80
2021/12/25 00:19:37;;;;;;;16.63;5.67;;;;;;;-11.51;62.00;98025.81;6042630;23;20106;-79
2021/12/25 00:22:03;;;;;;;13.90;5.60;;;;;;;-11.32;62.35;98049.31;6067682;23;20046;-79
2021/12/25 00:24:29;;;;;;;14.20;5.83;;;;;;;-11.40;61.96;98045.59;6044529;23;20023;-79
2021/12/25 00:34:43;;;;;;;15.17;7.30;;;;;;;-11.38;61.54;97998.81;6044793;23;20019;-79
2021/12/25 00:37:09;;;;;;;15.67;6.53;;;;;;;-11.62;62.50;97948.25;6021993;23;20026;-79
2021/12/25 00:39:36;;;;;;;15.50;6.33;;;;;;;-11.32;62.58;97979.00;6046866;23;20023;-79
2021/12/25 00:42:03;;;;;;;13.03;5.97;;;;;;;-11.18;62.97;97972.13;6048556;23;20022;-79
2021/12/25 00:44:29;;;;;;;15.43;6.10;;;;;;;-11.05;62.89;97974.44;6056180;23;20022;-79
2021/12/25 00:46:57;;;;;;;13.23;5.90;;;;;;;-11.17;62.38;97933.66;6022597;23;20110;-77
2021/12/25 00:49:26;;;;;;;15.13;6.53;;;;;;;-11.29;61.42;97913.00;6039845;23;20051;-78
2021/12/25 00:51:54;;;;;;;12.93;6.13;;;;;;;-11.19;62.42;97945.28;6102121;23;20040;-79
2021/12/25 00:54:21;;;;;;;16.27;6.77;;;;;;;-11.25;62.52;97917.38;6099114;23;20029;-80
2021/12/25 00:56:47;;;;;;;17.20;7.07;;;;;;;-11.82;61.99;97846.13;6073901;23;20022;-78
2021/12/25 00:59:13;;;;;;;12.37;4.70;;;;;;;-11.55;62.90;97872.44;6123923;23;20105;-77
2021/12/25 01:01:39;;;;;;;14.43;5.97;;;;;;;-11.30;63.37;97896.22;6121382;23;20041;-78
2021/12/25 01:04:05;;;;;;;15.97;6.20;;;;;;;-11.37;62.63;97847.34;6104903;23;20022;-77
2021/12/25 01:06:31;;;;;;;17.07;6.27;;;;;;;-11.13;62.07;97875.22;6144917;23;20017;-77
2021/12/25 01:08:57;;;;;;;17.03;5.70;;;;;;;-11.01;62.56;97900.06;6107482;23;20022;-78
2021/12/25 01:11:26;;;;;;;12.83;5.47;;;;;;;-11.17;62.22;97878.41;6096980;23;20014;-77
2021/12/25 01:13:59;;;;;;;16.93;5.63;;;;;;;-11.23;62.31;97837.91;6070707;23;20022;-77
2021/12/25 01:33:25;;;;;;;15.03;5.77;;;;;;;-10.95;62.59;97849.22;6119855;23;20045;-76
2021/12/25 01:36:24;;;;;;;12.63;5.27;;;;;;;-10.92;63.02;97834.28;6094759;23;20057;-79
2021/12/25 01:39:14;;;;;;;14.23;5.40;;;;;;;-10.61;63.15;97846.53;6096291;23;20090;-78
2021/12/25 01:47:59;;;;;;;14.13;4.70;;;;;;;-10.73;62.57;97807.44;6093195;23;20365;-77
2021/12/25 01:50:27;;;;;;;12.23;5.67;;;;;;;-10.71;62.88;97811.75;6069557;23;20191;-78
2021/12/25 01:52:55;;;;;;;8.87;4.63;;;;;;;-10.76;62.41;97810.69;6073167;23;20020;-76
2021/12/25 01:55:24;;;;;;;8.73;4.13;;;;;;;-10.76;62.59;97795.59;6107397;23;20027;-78
2021/12/25 01:57:52;;;;;;;5.20;2.80;;;;;;;-10.66;62.25;97820.31;6095462;23;20049;-77
2021/12/25 02:00:24;;;;;;;7.23;3.53;;;;;;;-11.21;62.28;97714.13;6071616;23;20077;-75
2021/12/25 02:02:51;;;;;;;11.65;4.18;;;;;;;-10.89;62.73;97781.63;6099295;23;20065;-78
2021/12/25 02:05:18;;;;;;;9.77;4.83;;;;;;;-10.77;63.29;97767.06;6095157;23;20091;-77
2021/12/25 02:07:44;;;;;;;6.50;3.27;;;;;;;-10.64;62.37;97770.13;6070049;23;20053;-75
2021/12/25 02:10:12;;;;;;;15.77;6.30;;;;;;;-10.78;63.23;97745.25;6093317;23;20026;-76
2021/12/25 02:12:38;;;;;;;8.00;4.03;;;;;;;-10.57;63.18;97782.13;6117786;23;20022;-77
2021/12/25 02:15:10;;;;;;;13.83;6.17;;;;;;;-10.82;62.50;97753.47;6117681;23;20022;-77
2021/12/25 02:23:43;;;;;;;7.03;2.40;;;;;;;-10.66;63.33;97737.34;6063054;23;20015;-76
2021/12/25 02:26:09;;;;;;;6.67;3.53;;;;;;;-10.85;63.91;97718.16;6080415;23;20101;-79
2021/12/25 02:28:35;;;;;;;10.70;5.10;;;;;;;-10.73;63.33;97719.44;6117449;23;20491;-77
2021/12/25 02:31:06;;;;;;;32.20;12.63;;;;;;;-10.63;63.86;97734.13;6118466;23;20028;-77
2021/12/25 02:33:36;;;;;;;9.03;4.13;;;;;;;-10.56;63.25;97727.69;6095951;23;20018;-77
2021/12/25 02:36:06;;;;;;;14.00;5.20;;;;;;;-10.27;64.80;97716.25;6103546;23;20018;-77
2021/12/25 02:38:33;;;;;;;9.30;3.13;;;;;;;-10.39;64.05;97678.09;6122374;23;20038;-80
2021/12/25 02:41:02;;;;;;;10.60;3.33;;;;;;;-10.39;63.77;97681.44;6094835;23;20483;-79
2021/12/25 02:43:28;;;;;;;9.53;3.83;;;;;;;-10.52;64.30;97646.56;6096862;23;20157;-77
2021/12/25 02:45:55;;;;;;;28.80;9.90;;;;;;;-10.29;63.75;97686.03;6107381;23;20018;-78
2021/12/25 02:48:22;;;;;;;7.03;3.37;;;;;;;-10.60;62.82;97647.09;6117529;23;20026;-77
2021/12/25 02:50:48;;;;;;;18.33;7.37;;;;;;;-10.41;63.26;97667.09;6142953;23;20032;-78
2021/12/25 02:53:16;;;;;;;15.50;6.07;;;;;;;-10.58;62.58;97661.41;6112934;23;20325;-76
2021/12/25 02:55:43;;;;;;;10.03;4.40;;;;;;;-10.78;63.92;97618.72;6119012;23;20448;-77
2021/12/25 02:58:11;;;;;;;16.57;7.47;;;;;;;-10.56;63.58;97667.34;6072459;23;20014;-77
2021/12/25 03:00:53;;;;;;;7.20;3.00;;;;;;;-10.82;63.19;97644.53;6070552;23;20022;-77
2021/12/25 03:03:19;;;;;;;;;;;;;;;-10.65;63.66;97653.59;6128203;23;20042;-76
2021/12/25 03:05:45;;;;;;;18.13;8.30;;;;;;;-10.65;63.98;97662.81;6134502;23;19968;-80
2021/12/25 03:08:12;;;;;;;12.17;5.40;;;;;;;-10.75;63.87;97618.84;6120947;23;20506;-77
2021/12/25 03:10:54;;;;;;;10.87;4.83;;;;;;;-10.56;63.75;97653.09;6122524;23;20026;-78
2021/12/25 03:14:32;;;;;;;21.53;9.43;;;;;;;-10.57;65.02;97625.41;6099770;23;20109;-78
2021/12/25 03:16:18;;;;;;;3.57;1.93;;;;;;;-10.29;65.28;97653.31;6091718;23;20104;-78
2021/12/25 03:18:49;;;;;;;15.07;5.97;;;;;;;-10.33;64.89;97611.25;6098089;23;20065;-74
2021/12/25 03:21:16;;;;;;;5.00;2.77;;;;;;;-10.10;65.01;97611.25;6097776;23;20466;-76
2021/12/25 03:23:45;;;;;;;6.43;2.73;;;;;;;-10.17;64.08;97605.13;6095562;23;20014;-78
2021/12/25 03:26:11;;;;;;;20.40;8.50;;;;;;;-10.14;64.43;97601.88;6118869;23;20010;-76
2021/12/25 03:28:42;;;;;;;13.03;5.90;;;;;;;-10.38;63.42;97591.78;6097261;23;20081;-77
2021/12/25 03:31:18;;;;;;;17.00;6.38;;;;;;;-10.45;63.11;97598.22;6119264;23;20022;-77
2021/12/25 03:33:46;;;;;;;7.17;3.67;;;;;;;-10.25;64.77;97613.16;6070860;23;20073;-78
2021/12/25 03:36:13;;;;;;;7.23;3.60;;;;;;;-10.40;63.95;97579.13;6120234;23;20027;-79
2021/12/25 03:38:39;;;;;;;16.27;7.00;;;;;;;-10.13;64.72;97580.94;6096479;23;20029;-77
2021/12/25 03:41:06;;;;;;;5.10;2.50;;;;;;;-10.10;65.12;97581.06;6097426;23;20022;-76
2021/12/25 03:43:35;;;;;;;6.53;3.10;;;;;;;-9.87;64.19;97598.66;6097566;23;20022;-79
2021/12/25 03:46:01;;;;;;;11.03;5.40;;;;;;;-10.05;63.91;97567.00;6122079;23;20117;-78
2021/12/25 03:59:05;;;;;;;14.63;6.33;;;;;;;-9.71;64.77;97558.13;6145136;23;19999;-77
2021/12/25 04:06:33;;;;;;;4.30;2.67;;;;;;;-9.71;64.33;97532.09;6120485;23;20050;-78
2021/12/25 04:09:01;;;;;;;7.90;3.90;;;;;;;-9.81;64.41;97498.16;6095047;23;20022;-78
2021/12/25 04:11:30;;;;;;;5.43;1.73;;;;;;;-9.61;64.09;97534.13;6117078;23;20029;-78
2021/12/25 04:13:56;;;;;;;4.83;2.40;;;;;;;-9.63;63.84;97529.84;6132954;23;20070;-76
2021/12/25 04:16:26;;;;;;;4.20;2.90;;;;;;;-9.89;63.05;97492.03;6122874;23;20731;-78
2021/12/25 04:18:52;;;;;;;26.03;9.40;;;;;;;-9.71;64.65;97502.72;6118844;23;20032;-78
2021/12/25 04:21:19;;;;;;;6.00;2.50;;;;;;;-9.35;64.08;97533.28;6096548;23;20029;-77
2021/12/25 04:23:45;;;;;;;2.43;1.57;;;;;;;-9.38;63.91;97532.38;6047432;23;20022;-78
2021/12/25 04:26:13;;;;;;;6.80;4.03;;;;;;;-9.65;62.87;97523.91;6097755;23;20014;-77
2021/12/25 04:28:48;;;;;;;5.10;2.20;;;;;;;-9.75;63.64;97505.94;6112934;23;20074;-77
2021/12/25 05:04:25;;;;;;;6.43;2.70;;;;;;;-9.31;63.61;97464.56;6095858;23;20600;-79
2021/12/25 05:07:14;;;;;;;6.40;1.92;;;;;;;-10.00;63.63;97349.06;6100464;23;20033;-78
2021/12/25 05:09:40;;;;;;;17.37;6.77;;;;;;;-9.25;63.67;97458.03;6094632;23;20086;-79
2021/12/25 05:12:07;;;;;;;4.33;2.57;;;;;;;-9.12;63.88;97449.22;6118072;23;20022;-79
2021/12/25 05:14:34;;;;;;;14.33;3.23;;;;;;;-9.10;64.20;97432.47;6093386;23;20113;-77
2021/12/25 05:17:00;;;;;;;2.63;0.97;;;;;;;-8.93;64.19;97445.59;6094005;23;20405;-77
2021/12/25 05:19:27;;;;;;;8.60;3.37;;;;;;;-8.91;63.98;97425.47;6093799;23;20085;-78
2021/12/25 05:21:53;;;;;;;4.70;2.10;;;;;;;-8.86;63.36;97420.59;6070997;23;20018;-78
2021/12/25 05:24:28;;;;;;;4.47;1.87;;;;;;;-8.88;63.58;97443.22;6128933;23;20120;-81
2021/12/25 05:26:57;;;;;;;5.30;2.63;;;;;;;-9.09;63.37;97413.19;6073199;23;20015;-78
2021/12/25 05:29:25;;;;;;;16.83;7.40;;;;;;;-8.73;64.40;97425.16;6070048;23;20028;-78
2021/12/25 05:31:53;;;;;;;11.80;4.70;;;;;;;-8.35;64.28;97442.19;6118235;23;20032;-78
2021/12/25 05:34:21;;;;;;;18.10;7.97;;;;;;;-8.37;64.48;97403.44;6114735;23;20049;-78
2021/12/25 05:36:58;;;;;;;9.47;3.70;;;;;;;-8.29;64.21;97423.84;6117844;23;20112;-79
2021/12/25 05:39:24;;;;;;;14.37;5.30;;;;;;;-8.47;63.10;97410.75;6118021;23;20122;-77
2021/12/25 05:41:50;;;;;;;2.53;1.57;;;;;;;-8.48;63.82;97419.13;6093192;23;20475;-78
2021/12/25 05:44:23;;;;;;;4.50;2.03;;;;;;;-8.67;63.70;97406.81;6092992;23;20172;-78
2021/12/25 05:47:10;;;;;;;20.17;7.23;;;;;;;-8.59;64.33;97405.41;6094465;23;20021;-78
2021/12/25 05:49:44;;;;;;;4.17;2.27;;;;;;;-8.45;63.72;97414.97;6068773;23;20026;-78
2021/12/25 05:52:14;;;;;;;7.07;4.83;;;;;;;-8.42;63.38;97399.94;6093038;23;20073;-76
2021/12/25 05:55:03;;;;;;;3.23;1.37;;;;;;;-8.93;63.99;97326.25;6047372;23;20529;-76
2021/12/25 05:57:41;;;;;;;7.20;3.47;;;;;;;-8.53;64.02;97375.31;6094115;23;20019;-76
2021/12/25 06:00:37;;;;;;;6.73;3.67;;;;;;;-8.58;63.66;97371.78;6094027;23;20028;-75
2021/12/25 06:03:11;;;;;;;7.80;2.93;;;;;;;-8.51;63.11;97383.78;6094230;23;20018;-77
2021/12/25 06:05:39;;;;;;;10.80;4.40;;;;;;;-9.59;63.20;97234.50;6094049;23;20074;-77
2021/12/25 06:08:05;;;;;;;13.97;5.47;;;;;;;-8.81;64.68;97323.22;6096099;23;20378;-77
2021/12/25 06:10:32;;;;;;;5.87;3.23;;;;;;;-8.28;64.06;97378.47;6074008;23;20360;-78
2021/12/25 06:13:10;;;;;;;8.82;4.10;;;;;;;-8.37;63.54;97376.53;6140658;23;20026;-75
2021/12/25 06:15:37;;;;;;;16.40;7.77;;;;;;;-8.36;64.55;97347.13;6081957;23;20023;-77
2021/12/25 06:18:30;;;;;;;9.07;4.73;;;;;;;-8.30;63.79;97348.94;6097239;23;20018;-77
2021/12/25 06:21:03;;;;;;;8.27;3.60;;;;;;;-8.37;64.06;97346.25;6095694;23;20029;-76
2021/12/25 06:23:56;;;;;;;3.00;1.37;;;;;;;-8.26;64.66;97346.53;6104880;23;20022;-77
2021/12/25 06:27:03;;;;;;;4.00;2.37;;;;;;;-8.56;64.26;97275.97;6094831;23;20484;-80
2021/12/25 06:29:37;;;;;;;9.97;4.87;;;;;;;-8.09;64.59;97325.94;6070611;23;20019;-75
2021/12/25 06:32:19;;;;;;;3.30;2.43;;;;;;;-8.07;63.88;97330.19;6094511;23;20018;-75
2021/12/25 06:35:23;;;;;;;9.13;2.93;;;;;;;-7.87;64.54;97342.47;6089785;23;20046;-78
2021/12/25 06:38:13;;;;;;;9.40;2.23;;;;;;;-7.87;64.44;97333.22;6093193;23;20029;-79
2021/12/25 06:41:02;;;;;;;4.20;1.33;;;;;;;-8.02;63.97;97282.34;6089809;23;20034;-78
2021/12/25 06:43:32;;;;;;;2.20;1.60;;;;;;;-8.04;63.56;97301.66;6093829;23;20026;-78
2021/12/25 06:45:57;;;;;;;5.67;2.73;;;;;;;-8.14;64.14;97293.00;6093443;23;20059;-75
2021/12/25 06:48:28;;;;;;;7.47;4.10;;;;;;;-8.88;64.18;97168.41;6118056;23;20046;-76
2021/12/25 06:51:13;;;;;;;15.70;6.50;;;;;;;-7.98;63.74;97284.13;6114185;23;20018;-79
2021/12/25 06:54:51;;;;;;;9.23;3.47;;;;;;;-7.72;64.65;97294.00;6067174;23;20053;-77
2021/12/25 06:57:19;;;;;;;10.95;4.43;;;;;;;-8.17;64.12;97218.06;6094013;23;20512;-77
2021/12/25 06:59:53;;;;;;;9.87;3.07;;;;;;;-7.32;64.28;97322.69;6093580;23;20084;-79
2021/12/25 07:02:19;;;;;;;13.70;5.05;;;;;;;-7.33;64.95;97290.66;6094550;23;20105;-77
2021/12/25 07:05:18;;;;;;;8.30;4.73;;;;;;;-7.84;63.21;97213.75;6058726;23;20010;-78
2021/12/25 07:08:22;;;;;;;1.77;1.50;;;;;;;-8.21;63.59;97186.00;6110131;23;20014;-79
2021/12/25 07:11:26;;;;;;;12.30;4.10;;;;;;;-8.85;63.44;97077.75;6114489;23;20026;-77
2021/12/25 07:14:27;;;;;;;4.88;2.72;;;;;;;-8.87;63.28;97069.28;6093770;23;20023;-77
2021/12/25 07:17:34;;;;;;;4.30;2.22;;;;;;;-7.38;63.79;97319.19;6035713;23;20023;-76
2021/12/25 07:20:51;;;;;;;3.97;1.23;;;;;;;-7.37;64.16;97291.41;5953382;24;20024;-77
2021/12/25 07:23:55;;;;;;;7.00;3.33;;;;;;;-7.82;63.82;97208.72;5957103;24;20588;-77
2021/12/25 07:26:39;;;;;;;16.20;7.18;;;;;;;-8.42;64.52;97069.44;5975566;24;20048;-75
2021/12/25 07:29:41;;;;;;;1.90;1.13;;;;;;;-7.62;64.12;97172.16;5950550;24;20027;-76
2021/12/25 07:32:07;;;;;;;8.85;4.57;;;;;;;-7.21;63.21;97231.09;6007813;23;20063;-75
2021/12/25 07:34:36;;;;;;;4.72;2.72;;;;;;;-7.59;63.72;97196.63;6107795;23;20022;-79
2021/12/25 07:37:03;;;;;;;11.52;6.47;;;;;;;-7.12;63.84;97249.81;6071321;23;20044;-78
2021/12/25 07:39:29;;;;;;;5.95;2.92;;;;;;;-6.89;63.67;97277.25;6095769;23;20018;-77
2021/12/25 07:41:55;;;;;;;3.90;2.03;;;;;;;-6.96;63.92;97257.72;6120908;23;20029;-77
2021/12/25 07:44:26;;;;;;;7.03;3.83;;;;;;;-6.66;64.00;97269.25;6100655;23;20038;-78
2021/12/25 07:46:54;;;;;;;15.18;6.07;;;;;;;-6.72;64.02;97241.28;6102973;23;20021;-77
2021/12/25 07:49:20;;;;;;;5.90;2.88;;;;;;;-6.52;64.40;97267.81;6093359;23;20572;-77
2021/12/25 07:51:47;;;;;;;10.32;3.42;;;;;;;-6.72;63.53;97214.31;6095763;23;20024;-78
2021/12/25 07:54:13;;;;;;;6.68;3.45;;;;;;;-6.79;63.55;97199.88;6111182;23;20002;-77
2021/12/25 07:56:39;;;;;;;6.90;3.05;;;;;;;-6.21;63.90;97267.50;6083260;23;20041;-76
2021/12/25 07:59:05;;;;;;;11.90;5.28;;;;;;;-6.19;63.69;97268.38;6099910;23;20452;-78
2021/12/25 08:01:34;;;;;;;4.28;2.03;;;;;;;-6.48;63.75;97213.03;6121064;23;20026;-77
2021/12/25 08:04:13;;;;;;;4.22;2.45;;;;;;;-6.33;63.92;97226.81;6096531;23;20025;-77
2021/12/25 08:06:57;;;;;;;7.85;3.58;;;;;;;-6.05;63.50;97269.47;6070809;23;20046;-79
2021/12/25 08:09:29;;;;;;;6.97;2.83;;;;;;;-7.11;63.54;97071.16;6071608;23;20022;-76
2021/12/25 08:12:00;;;;;;;6.60;2.35;;;;;;;-5.90;63.52;97248.56;6119952;23;20093;-77
2021/12/25 08:14:28;;;;;;;4.43;2.25;;;;;;;-5.65;63.01;97268.38;6096076;23;20049;-76
2021/12/25 08:16:56;;;;;;;11.30;4.68;;;;;;;-5.60;63.43;97254.06;6097444;23;20022;-78
2021/12/25 08:19:25;;;;;;;4.65;2.40;;;;;;;-5.41;63.82;97259.41;6120604;23;20461;-81
2021/12/25 08:22:12;;;;;;;11.82;4.78;;;;;;;-5.34;63.54;97263.72;6097602;23;20101;-77
2021/12/25 08:24:58;;;;;;;12.13;4.00;;;;;;;-5.08;63.89;97232.78;6097882;23;20491;-77
2021/12/25 08:27:59;;;;;;;9.85;4.72;;;;;;;-4.99;63.23;97222.75;6094854;23;20062;-77
2021/12/25 08:31:05;;;;;;;26.15;10.43;;;;;;;-5.81;63.82;97079.81;6075536;23;20026;-79
2021/12/25 08:34:09;;;;;;;13.30;6.00;;;;;;;-4.60;63.14;97243.47;6096694;23;20464;-79
2021/12/25 08:36:54;;;;;;;14.00;5.55;;;;;;;-5.00;63.30;97157.63;6095991;23;20369;-79
2021/12/25 08:39:20;;;;;;;11.73;5.35;;;;;;;-4.30;63.50;97245.44;6096302;23;20028;-79
2021/12/25 08:46:41;;;;;;;10.77;4.50;;;;;;;-5.66;63.25;97020.88;6007568;23;20437;-77
2021/12/25 08:49:17;;;;;;;24.48;9.45;;;;;;;-4.40;63.37;97206.41;5985310;23;20020;-78
2021/12/25 08:51:44;;;;;;;29.05;11.05;;;;;;;-5.39;64.06;97016.91;6009054;23;20038;-78
2021/12/25 08:54:11;;;;;;;17.05;6.32;;;;;;;-4.78;63.45;97113.00;6076211;23;20031;-77
2021/12/25 08:56:38;;;;;;;41.47;14.40;;;;;;;-4.31;64.52;97154.03;6085839;23;20054;-77
2021/12/25 08:59:04;;;;;;;38.78;13.75;;;;;;;-3.68;64.30;97237.47;6070883;23;20034;-77
2021/12/25 09:01:30;;;;;;;29.13;10.02;;;;;;;-3.78;64.63;97199.31;6097159;23;20437;-77
2021/12/25 09:04:05;;;;;;;23.02;8.45;;;;;;;-4.72;64.71;97052.16;6070756;23;20422;-78
2021/12/25 09:06:31;;;;;;;30.88;10.45;;;;;;;-3.96;65.12;97197.47;6070636;23;20041;-79
2021/12/25 09:08:57;;;;;;;31.33;10.90;;;;;;;-3.98;65.27;97201.69;6071405;23;20010;-77
2021/12/25 09:11:26;;;;;;;33.78;13.90;;;;;;;-3.86;65.24;97222.97;6071404;23;20409;-78
2021/12/25 09:14:11;;;;;;;33.88;12.63;;;;;;;-4.63;65.73;97102.16;6078106;23;20030;-78
2021/12/25 09:16:53;;;;;;;35.20;12.48;;;;;;;-3.68;66.15;97243.44;6078470;23;20018;-78
2021/12/25 09:19:19;;;;;;;17.13;7.88;;;;;;;-4.73;65.91;97091.06;6097321;23;20018;-77
2021/12/25 09:22:15;;;;;;;42.50;14.85;;;;;;;-3.76;67.22;97236.59;6070383;23;20081;-79
2021/12/25 09:24:44;;;;;;;23.90;9.52;;;;;;;-4.10;66.81;97194.81;6093766;23;20033;-78
2021/12/25 09:27:13;;;;;;;30.25;9.50;;;;;;;-4.77;66.59;97098.66;6070965;23;20022;-79
2021/12/25 09:29:56;;;;;;;28.73;11.65;;;;;;;-4.31;67.04;97170.13;6097159;23;20164;-79
2021/12/25 09:32:24;;;;;;;41.65;15.10;;;;;;;-4.79;67.25;97124.00;6024604;23;20022;-79
2021/12/25 09:35:00;;;;;;;34.33;13.48;;;;;;;-3.89;66.98;97261.06;6030432;23;20087;-80
2021/12/25 09:37:39;;;;;;;20.92;9.52;;;;;;;-4.34;67.08;97185.34;6115777;23;20022;-79
2021/12/25 09:40:27;;;;;;;30.73;12.57;;;;;;;-4.69;67.46;97117.31;6115195;23;20019;-77
2021/12/25 09:43:19;;;;;;;31.95;13.40;;;;;;;-3.70;67.78;97265.44;6054204;23;20018;-79
2021/12/25 09:45:46;;;;;;;24.70;9.75;;;;;;;-3.78;68.30;97272.16;6098251;23;20100;-76
2021/12/25 09:48:12;;;;;;;35.28;14.82;;;;;;;-4.20;68.54;97192.22;6074399;23;20054;-79
2021/12/25 09:50:38;;;;;;;22.38;9.82;;;;;;;-4.88;68.06;97107.00;6087224;23;20022;-77
2021/12/25 09:53:51;;;;;;;;;;;;;;;;;;;;;
2021/12/25 10:00:45;;;;;;;29.05;12.10;;;;;;;-3.83;68.92;97273.78;6111530;23;19913;-76
2021/12/25 10:03:53;;;;;;;26.17;12.43;;;;;;;-3.74;68.96;97283.19;6098658;23;20025;-79
2021/12/25 10:06:44;;;;;;;26.55;10.82;;;;;;;-5.43;69.75;97022.78;6081614;23;20091;-80
2021/12/25 10:09:38;;;;;;;30.70;13.35;;;;;;;-4.70;69.51;97164.69;6076444;23;20024;-79
2021/12/25 10:12:13;;;;;;;32.65;12.57;;;;;;;-4.18;69.81;97248.94;6096336;23;20022;-80
2021/12/25 10:15:01;;;;;;;27.20;11.13;;;;;;;-4.76;69.57;97159.56;6101400;23;20022;-77
2021/12/25 10:17:49;;;;;;;29.75;12.30;;;;;;;-5.05;69.78;97095.84;6074330;23;20465;-78
2021/12/25 10:20:45;;;;;;;28.27;11.82;;;;;;;-4.41;69.81;97224.19;6098075;23;20018;-78
2021/12/25 10:23:14;;;;;;;29.83;12.65;;;;;;;-4.60;70.74;97177.47;6071565;23;20018;-78
2021/12/25 10:25:49;;;;;;;23.33;10.98;;;;;;;-5.03;70.13;97112.78;6095653;23;20018;-79
2021/12/25 10:28:23;;;;;;;29.05;12.43;;;;;;;-4.25;70.70;97273.44;6098068;23;20029;-76
2021/12/25 10:30:55;;;;;;;30.15;12.90;;;;;;;-3.87;69.97;97323.75;6098694;23;20025;-78
2021/12/25 10:33:22;;;;;;;28.98;13.55;;;;;;;-4.03;70.70;97310.06;6097374;23;20033;-77
2021/12/25 10:35:49;;;;;;;24.05;11.68;;;;;;;-4.11;70.51;97315.06;6073259;23;20022;-78
2021/12/25 10:38:17;;;;;;;23.80;11.70;;;;;;;-4.28;69.90;97312.34;6097319;23;20034;-76
2021/12/25 10:40:46;;;;;;;24.83;10.95;;;;;;;-4.27;70.38;97328.44;6102869;23;20034;-76
2021/12/25 10:43:26;;;;;;;15.68;7.65;;;;;;;-4.27;70.13;97334.38;6101207;23;20021;-79
2021/12/25 10:46:00;;;;;;;25.65;11.57;;;;;;;-5.32;70.76;97198.69;6102745;23;20524;-78
2021/12/25 10:48:37;;;;;;;19.83;9.50;;;;;;;-5.07;70.22;97234.47;6075804;23;20511;-79
2021/12/25 10:51:23;;;;;;;22.92;10.25;;;;;;;-4.20;70.77;97380.16;6121098;23;20365;-79
2021/12/25 10:53:55;;;;;;;21.65;10.32;;;;;;;-4.29;71.21;97358.91;6097686;23;20018;-80
2021/12/25 10:56:23;;;;;;;23.10;9.73;;;;;;;-4.39;70.34;97359.66;6099674;23;20028;-78
2021/12/25 10:59:05;;;;;;;19.85;9.60;;;;;;;-4.39;70.68;97383.34;6055180;23;20170;-78
2021/12/25 11:01:46;;;;;;;20.45;9.20;;;;;;;-5.04;70.81;97275.94;6128016;23;20376;-76
2021/12/25 11:04:30;;;;;;;20.75;9.32;;;;;;;-4.34;70.65;97387.63;6075735;23;20364;-79
2021/12/25 11:07:21;;;;;;;21.50;8.93;;;;;;;-4.70;71.21;97309.38;6096476;23;20018;-77
2021/12/25 11:10:09;;;;;;;17.90;8.93;;;;;;;-4.45;71.05;97317.28;6096296;23;20023;-79
2021/12/25 11:12:36;;;;;;;21.80;9.57;;;;;;;-4.02;71.04;97379.53;6078861;23;20018;-80
2021/12/25 11:15:37;;;;;;;22.33;7.60;;;;;;;-4.03;70.46;97401.53;6063636;23;20029;-80
2021/12/25 11:18:17;;;;;;;16.88;7.90;;;;;;;-3.96;70.60;97418.56;6073399;23;20026;-81
2021/12/25 11:20:44;;;;;;;23.67;9.13;;;;;;;-4.31;70.43;97370.75;6115964;23;20045;-81
2021/12/25 11:23:30;;;;;;;;;;;;;;;;;;;;;
2021/12/25 11:26:20;;;;;;;11.70;6.30;;;;;;;-4.27;70.42;97397.03;6123334;23;20014;-79
2021/12/25 11:28:49;;;;;;;14.63;7.05;;;;;;;-4.11;70.06;97436.16;6074143;23;20022;-79
2021/12/25 11:31:16;;;;;;;11.02;5.75;;;;;;;-4.21;70.08;97432.66;6131026;23;20018;-80
2021/12/25 11:33:45;;;;;;;13.30;6.22;;;;;;;-4.19;69.88;97453.00;6108800;23;20018;-78
2021/12/25 11:36:10;;;;;;;17.92;7.50;;;;;;;-4.33;70.38;97445.19;6098813;23;20153;-77
2021/12/25 11:38:36;;;;;;;15.63;7.00;;;;;;;-4.30;70.00;97463.03;6100589;23;20018;-79
2021/12/25 11:41:09;;;;;;;13.90;6.65;;;;;;;-4.32;70.00;97462.16;6105271;23;20014;-80
2021/12/25 11:43:41;;;;;;;16.00;6.65;;;;;;;-4.76;70.54;97392.19;6113225;23;20028;-79
2021/12/25 11:46:08;;;;;;;;;;;;;;;-4.22;70.13;97476.69;6103918;23;20046;-78
2021/12/25 11:48:38;;;;;;;12.38;5.82;;;;;;;-4.11;69.97;97481.91;6115604;23;19932;-80
2021/12/25 11:51:06;;;;;;;13.90;7.00;;;;;;;-4.74;69.42;97381.22;6085705;23;20030;-80
2021/12/25 11:58:54;;;;;;;11.13;5.43;;;;;;;-4.65;69.23;97443.94;6109059;23;20033;-77
2021/12/25 12:01:33;;;;;;;9.80;5.03;;;;;;;-4.37;69.28;97500.19;6133137;23;20017;-80
2021/12/25 12:04:11;;;;;;;13.13;5.53;;;;;;;-4.62;68.98;97498.97;6109896;23;20022;-79
2021/12/25 12:06:51;;;;;;;9.73;4.35;;;;;;;-4.86;68.86;97510.47;6137094;23;20033;-78
2021/12/25 12:10:02;;;;;;;10.20;5.03;;;;;;;-5.07;69.11;97505.91;6131907;23;20022;-77
2021/12/25 12:13:30;;;;;;;9.07;3.90;;;;;;;-5.20;68.87;97518.38;6098185;23;20029;-80
2021/12/25 12:16:14;;;;;;;8.70;3.38;;;;;;;-5.20;69.37;97543.75;6106860;23;20015;-79
2021/12/25 12:18:55;;;;;;;13.38;5.32;;;;;;;-5.24;70.02;97557.19;6127882;23;20025;-79
2021/12/25 12:21:23;;;;;;;7.07;3.72;;;;;;;-5.26;69.60;97561.38;6113206;23;20026;-77
2021/12/25 12:26:45;;;;;;;6.70;3.35;;;;;;;-5.37;69.14;97560.31;6134606;23;20338;-77
2021/12/25 12:29:34;;;;;;;5.72;2.33;;;;;;;-5.54;69.28;97555.78;6100437;23;20014;-77
2021/12/25 12:32:19;;;;;;;8.30;3.90;;;;;;;-5.79;69.35;97541.78;6101251;23;20022;-77
2021/12/25 12:34:47;;;;;;;7.75;3.60;;;;;;;-6.06;69.65;97515.09;6103244;23;20041;-79
2021/12/25 12:37:16;;;;;;;5.63;3.20;;;;;;;-5.76;69.61;97595.06;6100442;23;20153;-78
2021/12/25 12:39:43;;;;;;;12.23;4.07;;;;;;;-5.81;69.47;97600.00;6074951;23;20023;-79
2021/12/25 12:42:12;;;;;;;8.88;4.40;;;;;;;-5.89;69.44;97593.94;6097201;23;20026;-79
2021/12/25 12:44:49;;;;;;;9.00;4.00;;;;;;;-5.79;69.62;97611.03;6097712;23;20018;-79
2021/12/25 12:47:18;;;;;;;9.98;4.45;;;;;;;-5.86;69.51;97583.00;6055620;23;20026;-79
2021/12/25 12:49:55;;;;;;;9.85;4.32;;;;;;;-5.72;69.69;97631.44;6106915;23;20027;-79
2021/12/25 12:52:36;;;;;;;9.55;3.60;;;;;;;-5.87;69.55;97596.50;6005536;23;20019;-80
2021/12/25 12:55:26;;;;;;;5.97;2.08;;;;;;;-5.87;69.76;97602.44;6056731;23;20055;-78
2021/12/25 12:58:14;;;;;;;10.65;4.35;;;;;;;-5.82;69.53;97633.78;6060790;23;20019;-79
2021/12/25 13:00:43;;;;;;;8.73;3.72;;;;;;;-5.90;68.83;97641.22;6037312;23;20099;-77
2021/12/25 13:03:09;;;;;;;9.50;4.10;;;;;;;-6.02;69.02;97647.72;6066894;23;20027;-79
2021/12/25 13:05:42;;;;;;;9.38;4.07;;;;;;;-6.12;69.20;97657.66;6029024;23;20717;-78
2021/12/25 13:08:29;;;;;;;8.90;3.63;;;;;;;-6.17;69.34;97673.53;6046869;23;20018;-79
2021/12/25 13:11:09;;;;;;;9.65;3.40;;;;;;;-6.21;69.38;97687.81;6044557;23;20027;-78
2021/12/25 13:13:40;;;;;;;13.35;3.25;;;;;;;-7.53;69.05;97473.81;6043457;23;20098;-79
2021/12/25 13:16:15;;;;;;;8.73;3.60;;;;;;;-7.12;68.94;97559.94;6043564;23;20026;-78
2021/12/25 13:18:51;;;;;;;5.07;2.50;;;;;;;-7.33;68.68;97540.03;6042992;23;20070;-78
2021/12/25 13:21:27;;;;;;;;;;;;;;;-6.41;68.47;97690.72;6020222;23;20022;-79
2021/12/25 13:24:16;;;;;;;5.10;2.67;;;;;;;-6.47;68.49;97715.88;6043452;23;19913;-79
2021/12/25 13:26:50;;;;;;;4.60;2.00;;;;;;;-7.99;68.26;97475.97;6018463;23;20011;-77
2021/12/25 13:29:23;;;;;;;4.10;2.38;;;;;;;-7.04;68.57;97649.50;6043121;23;20052;-77
2021/12/25 13:31:50;;;;;;;6.50;2.90;;;;;;;-7.53;67.96;97555.53;6043004;23;20022;-77
2021/12/25 13:34:24;;;;;;;5.53;2.83;;;;;;;-7.33;67.76;97618.38;6046590;23;20047;-77
2021/12/25 13:36:57;;;;;;;5.97;2.83;;;;;;;-7.52;68.14;97572.41;6028458;23;20022;-77
2021/12/25 13:39:28;;;;;;;6.18;2.65;;;;;;;-7.27;67.27;97647.19;6021355;23;20025;-78
2021/12/25 13:42:05;;;;;;;11.18;2.95;;;;;;;-7.68;67.68;97586.28;6041892;23;20022;-78
2021/12/25 13:44:33;;;;;;;4.82;2.35;;;;;;;-6.70;68.00;97751.56;5994587;23;20018;-78
2021/12/25 13:47:11;;;;;;;2.13;1.15;;;;;;;-6.66;67.60;97755.03;6041533;23;20021;-77